Morley, United Kingdom
Current Conditions -  °F | °C
As of 1:50 AM on Friday 28 Nov 2014 (Local Time) from EGNM Reporting Station
Moderate Fog Moderate Fog  
Wind Chill:   Ceiling: Unl
Heat Index:   Visibility: 0.06mi
Dew Point:   Wind: 3mph
Humidity: 100%   Direction: NA
Pressure: 29.65"   Gusts: NA
Location:  53.74°N, 1.6°W
Report Text: EGNM 280150Z VRB03KT 0100 FG VV/// 05/05 Q1004
Loading
Personal Weather Stations






























Interactive Weather Map New forecast layout! Learn more

10-Day Weather Forecast

Advertisements
Track Severe Weather on mobile